Time;durP1;ratioP1;P1;durP2;ratioP2;P2;SDS_P1;SDS_P2;PMS_P1;PMS_P2;Temp;Humidity;BMP_temperature;BMP_pressure;BME280_temperature;BME280_humidity;BME280_pressure;Samples;Min_cycle;Max_cycle;Signal;HPM_P1;HPM_P2
2023/05/02 00:03:34;;;;;;;25.33;18.55;;;;;;;-146.18;100.00;67994.34;10034043;28;20103;-68
2023/05/02 00:08:30;;;;;;;31.25;19.98;;;;;;;-146.18;100.00;67994.34;10044167;28;20047;-68
2023/05/02 00:13:27;;;;;;;28.08;19.27;;;;;;;-146.18;100.00;67994.34;10065291;28;20406;-65
2023/05/02 00:18:23;;;;;;;29.88;19.90;;;;;;;-146.18;100.00;67994.34;10059866;28;20047;-66
2023/05/02 00:23:20;;;;;;;34.65;22.05;;;;;;;-146.18;100.00;67994.34;10045059;28;20752;-66
2023/05/02 00:28:17;;;;;;;33.78;22.60;;;;;;;-146.18;100.00;67994.34;10047727;28;20058;-66
2023/05/02 00:33:14;;;;;;;27.30;19.52;;;;;;;-146.18;100.00;67994.34;10066859;28;20046;-67
2023/05/02 00:38:11;;;;;;;29.45;21.27;;;;;;;-146.18;100.00;67994.34;10035202;28;20044;-67
2023/05/02 00:43:09;;;;;;;33.78;22.67;;;;;;;-146.18;100.00;67994.34;10022317;28;20553;-68
2023/05/02 00:48:07;;;;;;;29.67;20.92;;;;;;;-146.18;100.00;67994.34;10014520;29;20043;-68
2023/05/02 00:53:05;;;;;;;36.00;22.45;;;;;;;-146.18;100.00;67994.34;10025054;28;20115;-68
2023/05/02 00:58:05;;;;;;;38.95;25.10;;;;;;;-146.18;100.00;67994.34;10047665;28;20142;-68
2023/05/02 01:03:16;;;;;;;33.47;21.67;;;;;;;-146.18;100.00;67994.34;10052465;28;20537;-66
2023/05/02 01:08:19;;;;;;;37.78;24.02;;;;;;;-146.18;100.00;67994.34;10057410;28;20047;-66
2023/05/02 01:13:27;;;;;;;45.97;25.60;;;;;;;-146.18;100.00;67994.34;10064680;28;20429;-69
2023/05/02 01:18:29;;;;;;;32.80;22.00;;;;;;;-146.18;100.00;67994.34;10035209;28;20076;-66
2023/05/02 01:23:40;;;;;;;33.63;21.35;;;;;;;-146.18;100.00;67994.34;10036739;28;20155;-69
2023/05/02 01:28:46;;;;;;;33.08;20.10;;;;;;;-146.18;100.00;67994.34;10032375;28;20051;-69
2023/05/02 01:33:45;;;;;;;32.38;21.92;;;;;;;-146.18;100.00;67994.34;10025266;28;20050;-69
2023/05/02 01:38:43;;;;;;;27.30;18.65;;;;;;;-146.18;100.00;67994.34;10025590;28;20050;-68
2023/05/02 01:43:41;;;;;;;26.77;17.42;;;;;;;-146.18;100.00;67994.34;10033527;28;20047;-68
2023/05/02 01:48:41;;;;;;;24.63;15.95;;;;;;;-146.18;100.00;67994.34;10038168;28;20643;-66
2023/05/02 01:53:39;;;;;;;24.85;15.55;;;;;;;-146.18;100.00;67994.34;10016577;28;20043;-66
2023/05/02 01:58:38;;;;;;;22.20;15.10;;;;;;;-146.18;100.00;67994.34;10029921;28;20390;-66
2023/05/02 02:03:35;;;;;;;22.52;14.40;;;;;;;-146.18;100.00;67994.34;10057197;28;20134;-66
2023/05/02 02:08:33;;;;;;;21.88;13.95;;;;;;;-146.18;100.00;67994.34;10055483;28;20047;-66
2023/05/02 02:13:36;;;;;;;19.83;13.70;;;;;;;-146.18;100.00;67994.34;10058624;28;20047;-66
2023/05/02 02:18:37;;;;;;;21.42;13.82;;;;;;;-146.18;100.00;67994.34;10030922;28;20067;-68
2023/05/02 02:23:35;;;;;;;21.52;13.45;;;;;;;-146.18;100.00;67994.34;10017671;28;20508;-68
2023/05/02 02:28:33;;;;;;;18.30;12.38;;;;;;;-146.18;100.00;67994.34;10024527;28;20048;-67
2023/05/02 02:33:30;;;;;;;21.00;12.77;;;;;;;-146.18;100.00;67994.34;10030955;28;20050;-65
2023/05/02 02:38:49;;;;;;;14.63;10.88;;;;;;;-146.18;100.00;67994.34;10027909;28;20122;-68
2023/05/02 02:44:10;;;;;;;11.23;8.40;;;;;;;-146.18;100.00;67994.34;10048906;28;20047;-68
2023/05/02 02:49:21;;;;;;;8.32;7.53;;;;;;;-146.18;100.00;67994.34;10049435;28;20091;-66
2023/05/02 02:54:28;;;;;;;8.52;7.63;;;;;;;-146.18;100.00;67994.34;10028425;28;20048;-67
2023/05/02 02:59:34;;;;;;;11.38;8.60;;;;;;;-146.18;100.00;67994.34;10026288;28;20047;-68
2023/05/02 03:04:32;;;;;;;16.33;7.70;;;;;;;-146.18;100.00;67994.34;10018433;28;20058;-68
2023/05/02 03:09:42;;;;;;;9.75;6.30;;;;;;;-146.18;100.00;67994.34;10023356;28;20082;-68
2023/05/02 03:14:39;;;;;;;15.98;6.53;;;;;;;-146.18;100.00;67994.34;10059080;28;20087;-67
2023/05/02 03:19:36;;;;;;;16.20;7.40;;;;;;;-146.18;100.00;67994.34;10054767;28;20050;-67
2023/05/02 03:24:32;;;;;;;14.23;6.30;;;;;;;-146.18;100.00;67994.34;10040337;28;20058;-67
2023/05/02 03:29:29;;;;;;;17.08;7.38;;;;;;;-146.18;100.00;67994.34;10056964;28;20043;-67
2023/05/02 03:34:25;;;;;;;19.38;7.88;;;;;;;-146.18;100.00;67994.34;10060235;28;20105;-66
2023/05/02 03:39:22;;;;;;;35.67;9.23;;;;;;;-146.18;100.00;67994.34;10047091;28;20126;-67
2023/05/02 03:44:21;;;;;;;18.33;7.10;;;;;;;-146.18;100.00;67994.34;10052002;28;20048;-67
2023/05/02 03:49:18;;;;;;;21.48;7.68;;;;;;;-146.18;100.00;67994.34;10051524;28;20633;-65
2023/05/02 03:54:15;;;;;;;26.20;7.25;;;;;;;-146.18;100.00;67994.34;10052641;28;20056;-65
2023/05/02 03:59:12;;;;;;;16.42;7.72;;;;;;;-146.18;100.00;67994.34;10055738;28;20054;-65
2023/05/02 04:04:10;;;;;;;12.77;6.70;;;;;;;-146.18;100.00;67994.34;10056023;28;20079;-66
2023/05/02 04:09:07;;;;;;;17.98;7.80;;;;;;;-146.18;100.00;67994.34;10031598;28;20071;-65
2023/05/02 04:14:03;;;;;;;20.77;7.95;;;;;;;-146.18;100.00;67994.34;10024886;28;20051;-66
2023/05/02 04:18:59;;;;;;;24.08;8.02;;;;;;;-146.18;100.00;67994.34;10011433;28;20414;-65
2023/05/02 04:23:56;;;;;;;24.25;7.68;;;;;;;-146.18;100.00;67994.34;10024495;28;20048;-65
2023/05/02 04:28:52;;;;;;;16.75;8.25;;;;;;;-146.18;100.00;67994.34;10025601;28;20095;-65
2023/05/02 04:33:49;;;;;;;29.73;7.90;;;;;;;-146.18;100.00;67994.34;10020110;28;20138;-64
2023/05/02 04:38:45;;;;;;;14.07;6.90;;;;;;;-146.18;100.00;67994.34;10030850;28;20060;-68
2023/05/02 04:43:42;;;;;;;18.75;6.35;;;;;;;-146.18;100.00;67994.34;10047649;28;20770;-65
2023/05/02 04:48:41;;;;;;;15.70;6.85;;;;;;;-146.18;100.00;67994.34;10070121;28;20062;-64
2023/05/02 04:53:37;;;;;;;15.90;7.05;;;;;;;-146.18;100.00;67994.34;10059499;28;20078;-64
2023/05/02 04:58:36;;;;;;;13.27;7.25;;;;;;;-146.18;100.00;67994.34;10024926;28;20048;-64
2023/05/02 05:03:32;;;;;;;12.93;8.18;;;;;;;-146.18;100.00;67994.34;10022182;29;20071;-64
2023/05/02 05:08:29;;;;;;;15.10;6.80;;;;;;;-146.18;100.00;67994.34;10031366;29;20051;-65
2023/05/02 05:13:25;;;;;;;20.58;7.43;;;;;;;-146.18;100.00;67994.34;10029982;28;20054;-65
2023/05/02 05:18:22;;;;;;;16.42;8.48;;;;;;;-146.18;100.00;67994.34;10037673;28;20725;-65
2023/05/02 05:23:19;;;;;;;17.15;8.05;;;;;;;-146.18;100.00;67994.34;10027345;29;20047;-64
2023/05/02 05:28:16;;;;;;;15.52;7.78;;;;;;;-146.18;100.00;67994.34;10027130;28;20150;-65
2023/05/02 05:33:13;;;;;;;18.13;7.80;;;;;;;-146.18;100.00;67994.34;10028711;28;20110;-64
2023/05/02 05:38:10;;;;;;;15.20;7.20;;;;;;;-146.18;100.00;67994.34;10045772;28;20044;-65
2023/05/02 05:43:06;;;;;;;16.95;7.32;;;;;;;-146.18;100.00;67994.34;10066706;28;20143;-65
2023/05/02 05:48:03;;;;;;;17.30;7.35;;;;;;;-146.18;100.00;67994.34;10063259;28;20461;-65
2023/05/02 05:52:59;;;;;;;18.95;7.63;;;;;;;-146.18;100.00;67994.34;10063908;28;20044;-65
2023/05/02 05:57:56;;;;;;;16.35;7.82;;;;;;;-146.18;100.00;67994.34;10067487;28;20432;-65
2023/05/02 06:02:52;;;;;;;13.80;7.25;;;;;;;-146.18;100.00;67994.34;10054628;28;20549;-64
2023/05/02 06:07:49;;;;;;;16.98;8.25;;;;;;;-146.18;100.00;67994.34;10073636;28;20070;-65
2023/05/02 06:12:45;;;;;;;13.20;6.82;;;;;;;-146.18;100.00;67994.34;10063943;28;20050;-65
2023/05/02 06:17:44;;;;;;;17.40;8.07;;;;;;;-146.18;100.00;67994.34;10064369;28;20055;-65
2023/05/02 06:22:41;;;;;;;14.63;7.47;;;;;;;-146.18;100.00;67994.34;10064533;28;20039;-65
2023/05/02 06:27:37;;;;;;;18.77;7.75;;;;;;;-146.18;100.00;67994.34;10067800;28;20247;-65
2023/05/02 06:32:34;;;;;;;9.95;6.90;;;;;;;-146.18;100.00;67994.34;10033769;28;20054;-64
2023/05/02 06:37:37;;;;;;;13.65;7.47;;;;;;;-146.18;100.00;67994.34;10030645;28;20083;-64
2023/05/02 06:42:33;;;;;;;17.05;7.47;;;;;;;-146.18;100.00;67994.34;10016127;28;20047;-64
2023/05/02 06:47:30;;;;;;;8.18;6.30;;;;;;;-146.18;100.00;67994.34;10037690;28;20433;-64
2023/05/02 06:52:28;;;;;;;9.05;6.50;;;;;;;-146.18;100.00;67994.34;10077415;28;20039;-65
2023/05/02 06:57:25;;;;;;;11.98;6.57;;;;;;;-146.18;100.00;67994.34;10057386;28;20047;-64
2023/05/02 07:02:21;;;;;;;11.70;6.88;;;;;;;-146.18;100.00;67994.34;10061496;28;20051;-64
2023/05/02 07:07:20;;;;;;;12.13;6.93;;;;;;;-146.18;100.00;67994.34;10047199;28;20080;-64
2023/05/02 07:12:17;;;;;;;8.85;6.05;;;;;;;-146.18;100.00;67994.34;10027715;28;20079;-64
2023/05/02 07:17:14;;;;;;;10.38;6.38;;;;;;;-146.18;100.00;67994.34;10049188;28;20047;-64
2023/05/02 07:22:11;;;;;;;10.07;5.43;;;;;;;-146.18;100.00;67994.34;10062637;28;20071;-65
2023/05/02 07:27:08;;;;;;;8.48;5.75;;;;;;;-146.18;100.00;67994.34;10068855;28;20051;-64
2023/05/02 07:32:05;;;;;;;6.82;5.25;;;;;;;-146.18;100.00;67994.34;10072349;28;20047;-65
2023/05/02 07:37:02;;;;;;;9.18;5.18;;;;;;;-146.18;100.00;67994.34;10071720;28;20050;-65
2023/05/02 07:41:58;;;;;;;7.20;5.30;;;;;;;-146.18;100.00;67994.34;10053822;28;20074;-64
2023/05/02 07:46:54;;;;;;;6.63;5.35;;;;;;;-146.18;100.00;67994.34;10040772;28;20134;-64
2023/05/02 07:51:51;;;;;;;8.32;5.18;;;;;;;-146.18;100.00;67994.34;10033826;28;20055;-65
2023/05/02 07:56:47;;;;;;;8.63;5.47;;;;;;;-146.18;100.00;67994.34;10024642;28;20071;-65
2023/05/02 08:01:44;;;;;;;5.82;4.95;;;;;;;-146.18;100.00;67994.34;10017202;28;20083;-65
2023/05/02 08:06:43;;;;;;;11.75;5.65;;;;;;;-146.18;100.00;67994.34;10023555;28;20054;-64
2023/05/02 08:11:40;;;;;;;7.85;5.25;;;;;;;-146.18;100.00;67994.34;10032838;28;20226;-65
2023/05/02 08:16:36;;;;;;;10.38;5.63;;;;;;;-146.18;100.00;67994.34;10064589;28;20047;-65
2023/05/02 08:21:33;;;;;;;12.40;5.68;;;;;;;-146.18;100.00;67994.34;10059269;28;20058;-65
2023/05/02 08:26:30;;;;;;;12.73;5.72;;;;;;;-146.18;100.00;67994.34;10058578;28;20035;-64
2023/05/02 08:31:29;;;;;;;9.57;5.70;;;;;;;-146.18;100.00;67994.34;10056215;28;20659;-64
2023/05/02 08:36:27;;;;;;;10.35;5.93;;;;;;;-146.18;100.00;67994.34;10025967;28;20060;-65
2023/05/02 08:41:25;;;;;;;5.85;5.15;;;;;;;-146.18;100.00;67994.34;10031261;28;20082;-64
2023/05/02 08:46:22;;;;;;;10.02;5.30;;;;;;;-146.18;100.00;67994.34;10030830;28;20043;-65
2023/05/02 08:51:21;;;;;;;12.48;5.60;;;;;;;-146.18;100.00;67994.34;10030153;28;20155;-65
2023/05/02 08:56:18;;;;;;;11.52;5.63;;;;;;;-146.18;100.00;67994.34;10028824;28;20054;-65
2023/05/02 09:01:16;;;;;;;9.98;5.65;;;;;;;-146.18;100.00;67994.34;10033362;28;20051;-65
2023/05/02 09:06:16;;;;;;;10.70;6.13;;;;;;;-146.18;100.00;67994.34;10064065;28;20457;-65
2023/05/02 09:11:12;;;;;;;7.63;5.30;;;;;;;-146.18;100.00;67994.34;10066717;28;20039;-65
2023/05/02 09:16:13;;;;;;;13.07;5.43;;;;;;;-146.18;100.00;67994.34;10058303;28;20047;-65
2023/05/02 09:21:13;;;;;;;;;;;;;;;-146.18;100.00;67994.34;10065783;28;20506;-65
2023/05/02 09:26:31;;;;;;;8.07;5.13;;;;;;;-146.18;100.00;67994.34;10068488;28;19922;-65
2023/05/02 09:31:35;;;;;;;11.00;5.82;;;;;;;-146.18;100.00;67994.34;10063696;28;20050;-65
2023/05/02 09:36:52;;;;;;;7.10;5.43;;;;;;;-146.18;100.00;67994.34;10063461;28;20048;-65
2023/05/02 09:41:50;;;;;;;7.38;4.95;;;;;;;-146.18;100.00;67994.34;10071111;28;20509;-65
2023/05/02 09:46:48;;;;;;;6.70;5.18;;;;;;;-146.18;100.00;67994.34;10071459;28;20047;-65
2023/05/02 09:51:48;;;;;;;7.57;4.97;;;;;;;-146.18;100.00;67994.34;10070648;28;20051;-65
2023/05/02 09:56:55;;;;;;;5.68;5.13;;;;;;;-146.18;100.00;67994.34;10069307;28;20115;-65
2023/05/02 10:01:55;;;;;;;8.10;5.80;;;;;;;-146.18;100.00;67994.34;10051094;28;20055;-65
2023/05/02 10:06:53;;;;;;;10.63;4.93;;;;;;;-146.18;100.00;67994.34;10047950;28;20074;-65
2023/05/02 10:11:54;;;;;;;14.02;6.50;;;;;;;-146.18;100.00;67994.34;10065853;28;20052;-65
2023/05/02 10:16:56;;;;;;;11.02;5.38;;;;;;;-146.18;100.00;67994.34;10061625;28;20044;-65
2023/05/02 10:21:55;;;;;;;7.00;4.97;;;;;;;-146.18;100.00;67994.34;10061320;28;20056;-65
2023/05/02 10:26:52;;;;;;;5.57;4.70;;;;;;;-146.18;100.00;67994.34;10058133;28;20502;-65
2023/05/02 10:31:52;;;;;;;10.77;6.15;;;;;;;-146.18;100.00;67994.34;10024550;29;20055;-65
2023/05/02 10:36:48;;;;;;;14.05;5.03;;;;;;;-146.18;100.00;67994.34;10020484;28;20051;-65
2023/05/02 10:41:45;;;;;;;9.85;5.03;;;;;;;-146.18;100.00;67994.34;10038705;28;20685;-65
2023/05/02 10:46:42;;;;;;;8.50;5.13;;;;;;;-146.18;100.00;67994.34;10064253;28;20047;-66
2023/05/02 10:51:41;;;;;;;13.23;5.25;;;;;;;-146.18;100.00;67994.34;10049086;28;20048;-65
2023/05/02 10:56:57;;;;;;;7.88;5.22;;;;;;;-146.18;100.00;67994.34;10038602;28;20127;-65
2023/05/02 11:01:53;;;;;;;7.03;4.95;;;;;;;-146.18;100.00;67994.34;10029433;28;20808;-65
2023/05/02 11:06:56;;;;;;;5.15;4.53;;;;;;;-146.18;100.00;67994.34;10029493;28;20051;-65
2023/05/02 11:11:53;;;;;;;;;;;;;;;-146.18;100.00;67994.34;10025227;28;20048;-65
2023/05/02 11:17:08;;;;;;;13.38;5.65;;;;;;;-146.18;100.00;67994.34;10026112;28;19927;-65
2023/05/02 11:22:16;;;;;;;5.28;4.63;;;;;;;-146.18;100.00;67994.34;10043047;28;20047;-65
2023/05/02 11:27:28;;;;;;;12.70;4.70;;;;;;;-146.18;100.00;67994.34;10068319;28;20059;-65
2023/05/02 11:32:44;;;;;;;8.85;4.70;;;;;;;-146.18;100.00;67994.34;10058064;28;20043;-65
2023/05/02 11:37:41;;;;;;;7.00;5.03;;;;;;;-146.18;100.00;67994.34;10053628;28;20075;-65
2023/05/02 11:42:37;;;;;;;6.15;4.80;;;;;;;-146.18;100.00;67994.34;10053275;28;20051;-65
2023/05/02 11:47:34;;;;;;;6.85;4.47;;;;;;;-146.18;100.00;67994.34;10053866;28;20413;-65
2023/05/02 11:52:36;;;;;;;7.18;4.35;;;;;;;-146.18;100.00;67994.34;10052000;28;20051;-65
2023/05/02 11:57:32;;;;;;;9.60;4.22;;;;;;;-146.18;100.00;67994.34;10050032;28;20459;-65
2023/05/02 12:02:36;;;;;;;9.70;5.32;;;;;;;-146.18;100.00;67994.34;10046235;28;20082;-65
2023/05/02 12:07:38;;;;;;;7.57;5.55;;;;;;;-146.18;100.00;67994.34;10026594;28;20050;-65
2023/05/02 12:12:35;;;;;;;5.05;4.30;;;;;;;-146.18;100.00;67994.34;10023953;28;20066;-65
2023/05/02 12:17:33;;;;;;;8.30;4.10;;;;;;;-146.18;100.00;67994.34;10026607;28;20485;-65
2023/05/02 12:22:30;;;;;;;6.63;4.35;;;;;;;-146.18;100.00;67994.34;10031417;28;20501;-65
2023/05/02 12:27:26;;;;;;;6.57;5.03;;;;;;;-146.18;100.00;67994.34;10051632;28;20051;-65
2023/05/02 12:32:28;;;;;;;10.90;4.97;;;;;;;-146.18;100.00;67994.34;10036441;28;20424;-65
2023/05/02 12:37:26;;;;;;;7.93;4.72;;;;;;;-146.18;100.00;67994.34;10027753;28;20047;-66
2023/05/02 12:42:24;;;;;;;7.75;5.57;;;;;;;-146.18;100.00;67994.34;10046718;28;20715;-65
2023/05/02 12:47:21;;;;;;;7.70;4.63;;;;;;;-146.18;100.00;67994.34;10071746;28;20078;-65
2023/05/02 12:52:19;;;;;;;9.85;4.40;;;;;;;-146.18;100.00;67994.34;10050849;28;20394;-65
2023/05/02 12:57:25;;;;;;;8.18;6.32;;;;;;;-146.18;100.00;67994.34;10056406;28;20656;-65
2023/05/02 13:02:22;;;;;;;8.23;4.85;;;;;;;-146.18;100.00;67994.34;10050830;28;20082;-65
2023/05/02 13:07:19;;;;;;;7.63;4.85;;;;;;;-146.18;100.00;67994.34;10069210;28;20059;-65
2023/05/02 13:12:15;;;;;;;11.13;4.90;;;;;;;-146.18;100.00;67994.34;10066129;28;20044;-65
2023/05/02 13:17:11;;;;;;;8.25;5.07;;;;;;;-146.18;100.00;67994.34;10056679;28;20131;-65
2023/05/02 13:22:08;;;;;;;8.77;5.60;;;;;;;-146.18;100.00;67994.34;10060189;28;20102;-65
2023/05/02 13:27:05;;;;;;;9.02;5.22;;;;;;;-146.18;100.00;67994.34;10052114;28;20078;-65
2023/05/02 13:32:01;;;;;;;5.50;4.38;;;;;;;-146.18;100.00;67994.34;10059681;28;20071;-65
2023/05/02 13:36:58;;;;;;;9.90;4.95;;;;;;;-146.18;100.00;67994.34;10057747;28;20130;-65
2023/05/02 13:41:54;;;;;;;5.25;4.47;;;;;;;-146.18;100.00;67994.34;10045066;28;20075;-65
2023/05/02 13:46:51;;;;;;;6.82;4.90;;;;;;;-146.18;100.00;67994.34;10076204;28;20061;-66
2023/05/02 13:51:47;;;;;;;12.77;5.45;;;;;;;-146.18;100.00;67994.34;10062605;28;20044;-65
2023/05/02 13:56:44;;;;;;;11.20;4.75;;;;;;;-146.18;100.00;67994.34;10065544;28;20054;-65
2023/05/02 14:01:40;;;;;;;5.40;4.80;;;;;;;-146.18;100.00;67994.34;10046274;28;20047;-65
2023/05/02 14:06:37;;;;;;;10.32;5.07;;;;;;;-146.18;100.00;67994.34;10033625;28;20043;-65
2023/05/02 14:11:34;;;;;;;8.32;5.57;;;;;;;-146.18;100.00;67994.34;10026987;28;20086;-65
2023/05/02 14:16:30;;;;;;;8.20;5.47;;;;;;;-146.18;100.00;67994.34;10027007;28;20091;-65
2023/05/02 14:21:27;;;;;;;7.30;4.70;;;;;;;-146.18;100.00;67994.34;10038194;28;20098;-65
2023/05/02 14:26:23;;;;;;;10.50;5.10;;;;;;;-146.18;100.00;67994.34;10058184;28;20054;-65
2023/05/02 14:31:20;;;;;;;7.45;4.60;;;;;;;-146.18;100.00;67994.34;10050814;28;20513;-65
2023/05/02 14:36:16;;;;;;;9.00;4.93;;;;;;;-146.18;100.00;67994.34;10032219;28;20078;-65
2023/05/02 14:41:13;;;;;;;9.05;4.85;;;;;;;-146.18;100.00;67994.34;10027240;28;20052;-65
2023/05/02 14:46:09;;;;;;;6.57;4.78;;;;;;;-146.18;100.00;67994.34;10041438;28;20051;-65
2023/05/02 14:51:06;;;;;;;6.88;4.40;;;;;;;-146.18;100.00;67994.34;10035799;28;20075;-65
2023/05/02 14:56:02;;;;;;;8.05;4.80;;;;;;;-146.18;100.00;67994.34;10070343;28;20094;-65
2023/05/02 15:00:59;;;;;;;9.63;5.10;;;;;;;-146.18;100.00;67994.34;10057504;28;20414;-65
2023/05/02 15:05:55;;;;;;;5.93;4.45;;;;;;;-146.18;100.00;67994.34;10027252;28;20071;-65
2023/05/02 15:10:54;;;;;;;7.28;4.40;;;;;;;-146.18;100.00;67994.34;10030902;28;20051;-65
2023/05/02 15:15:53;;;;;;;7.38;4.45;;;;;;;-146.18;100.00;67994.34;10058414;28;20451;-65
2023/05/02 15:20:49;;;;;;;8.48;4.50;;;;;;;-146.18;100.00;67994.34;10049195;28;20610;-64
2023/05/02 15:25:45;;;;;;;9.05;4.75;;;;;;;-146.18;100.00;67994.34;10050705;28;20043;-64
2023/05/02 15:30:42;;;;;;;5.70;4.57;;;;;;;-146.18;100.00;67994.34;10044531;28;20510;-64
2023/05/02 15:35:39;;;;;;;7.38;5.18;;;;;;;-146.18;100.00;67994.34;10025726;29;20059;-64
2023/05/02 15:40:35;;;;;;;10.88;5.30;;;;;;;-146.18;100.00;67994.34;10016910;28;20511;-67
2023/05/02 15:45:32;;;;;;;10.93;6.05;;;;;;;-146.18;100.00;67994.34;10019739;28;20066;-65
2023/05/02 15:50:29;;;;;;;7.30;4.22;;;;;;;-146.18;100.00;67994.34;10024858;28;20052;-65
2023/05/02 15:55:25;;;;;;;9.57;4.78;;;;;;;-146.18;100.00;67994.34;10023540;28;20059;-66
2023/05/02 16:00:22;;;;;;;9.15;4.40;;;;;;;-146.18;100.00;67994.34;10024026;28;20498;-65
2023/05/02 16:05:18;;;;;;;12.50;6.30;;;;;;;-146.18;100.00;67994.34;10019191;28;20090;-66
2023/05/02 16:10:15;;;;;;;11.38;5.72;;;;;;;-146.18;100.00;67994.34;10026601;28;20151;-65
2023/05/02 16:15:12;;;;;;;7.90;5.03;;;;;;;-146.18;100.00;67994.34;10024618;28;20051;-65
2023/05/02 16:20:09;;;;;;;9.05;4.85;;;;;;;-146.18;100.00;67994.34;10024275;28;20048;-66
2023/05/02 16:25:08;;;;;;;6.65;4.47;;;;;;;-146.18;100.00;67994.34;10021132;28;20056;-65
2023/05/02 16:30:05;;;;;;;8.48;4.85;;;;;;;-146.18;100.00;67994.34;10027679;28;20526;-65
2023/05/02 16:35:04;;;;;;;8.02;4.80;;;;;;;-146.18;100.00;67994.34;10023711;28;20075;-65
2023/05/02 16:40:00;;;;;;;5.47;4.50;;;;;;;-146.18;100.00;67994.34;10022141;29;20098;-65
2023/05/02 16:44:59;;;;;;;8.70;4.90;;;;;;;-146.18;100.00;67994.34;10028404;29;20056;-65
2023/05/02 16:49:57;;;;;;;8.75;5.10;;;;;;;-146.18;100.00;67994.34;10040893;28;20044;-65
2023/05/02 16:54:53;;;;;;;7.20;5.38;;;;;;;-146.18;100.00;67994.34;10030555;29;20110;-65
2023/05/02 16:59:51;;;;;;;6.82;4.63;;;;;;;-146.18;100.00;67994.34;10032343;29;20131;-65
2023/05/02 17:04:48;;;;;;;9.75;6.10;;;;;;;-146.18;100.00;67994.34;10027279;29;20143;-65
2023/05/02 17:09:45;;;;;;;5.90;5.10;;;;;;;-146.18;100.00;67994.34;10067209;28;20047;-65
2023/05/02 17:14:42;;;;;;;6.28;5.32;;;;;;;-146.18;100.00;67994.34;10070248;28;20079;-65
2023/05/02 17:19:38;;;;;;;7.60;5.13;;;;;;;-146.18;100.00;67994.34;10066437;28;20100;-65
2023/05/02 17:24:36;;;;;;;7.28;5.25;;;;;;;-146.18;100.00;67994.34;10065057;28;20572;-65
2023/05/02 17:29:32;;;;;;;6.03;5.32;;;;;;;-146.18;100.00;67994.34;10059650;28;20043;-65
2023/05/02 17:34:29;;;;;;;9.07;5.20;;;;;;;-146.18;100.00;67994.34;10068868;28;20082;-65
2023/05/02 17:39:25;;;;;;;8.13;4.80;;;;;;;-146.18;100.00;67994.34;10066167;28;20715;-65
2023/05/02 17:44:22;;;;;;;7.10;4.82;;;;;;;-146.18;100.00;67994.34;10019913;28;20623;-65
2023/05/02 17:49:19;;;;;;;6.85;4.78;;;;;;;-146.18;100.00;67994.34;10048529;28;20046;-65
2023/05/02 17:54:15;;;;;;;9.00;5.10;;;;;;;-146.18;100.00;67994.34;10057320;28;20063;-65
2023/05/02 17:59:12;;;;;;;8.85;5.03;;;;;;;-146.18;100.00;67994.34;10062107;28;20053;-65
2023/05/02 18:04:11;;;;;;;6.32;4.50;;;;;;;-146.18;100.00;67994.34;10068120;28;20130;-65
2023/05/02 18:09:08;;;;;;;8.88;4.40;;;;;;;-146.18;100.00;67994.34;10032778;28;20044;-65
2023/05/02 18:14:05;;;;;;;4.78;3.95;;;;;;;-146.18;100.00;67994.34;10063286;29;20058;-65
2023/05/02 18:19:02;;;;;;;7.47;3.53;;;;;;;-146.18;100.00;67994.34;10038462;28;20061;-65
2023/05/02 18:23:58;;;;;;;6.57;3.95;;;;;;;-146.18;100.00;67994.34;10053726;28;20131;-65
2023/05/02 18:28:54;;;;;;;6.28;4.55;;;;;;;-146.18;100.00;67994.34;10069235;28;20143;-65
2023/05/02 18:33:54;;;;;;;7.10;4.47;;;;;;;-146.18;100.00;67994.34;10060957;28;20110;-65
2023/05/02 18:38:51;;;;;;;7.00;4.70;;;;;;;-146.18;100.00;67994.34;10056549;28;20043;-65
2023/05/02 18:43:47;;;;;;;7.97;4.07;;;;;;;-146.18;100.00;67994.34;10068159;28;20532;-65
2023/05/02 18:48:44;;;;;;;7.70;4.43;;;;;;;-146.18;100.00;67994.34;10066528;28;20524;-65
2023/05/02 18:53:40;;;;;;;7.28;4.20;;;;;;;-146.18;100.00;67994.34;10054429;28;20485;-65
2023/05/02 18:58:37;;;;;;;7.43;3.97;;;;;;;-146.18;100.00;67994.34;10061623;28;20065;-65
2023/05/02 19:03:33;;;;;;;7.63;4.00;;;;;;;-146.18;100.00;67994.34;10040744;28;20142;-65
2023/05/02 19:08:30;;;;;;;5.05;3.90;;;;;;;-146.18;100.00;67994.34;10031565;29;20047;-65
2023/05/02 19:13:26;;;;;;;5.63;3.92;;;;;;;-146.18;100.00;67994.34;10023451;28;20106;-65
2023/05/02 19:18:23;;;;;;;8.32;4.75;;;;;;;-146.18;100.00;67994.34;10028980;28;20044;-65
2023/05/02 19:23:19;;;;;;;9.27;5.70;;;;;;;-146.18;100.00;67994.34;10032721;28;20052;-65
2023/05/02 19:28:16;;;;;;;9.15;4.35;;;;;;;-146.18;100.00;67994.34;10022556;28;20071;-65
2023/05/02 19:33:13;;;;;;;8.18;4.28;;;;;;;-146.18;100.00;67994.34;10058387;28;20521;-65
2023/05/02 19:38:09;;;;;;;5.45;4.18;;;;;;;-146.18;100.00;67994.34;10057871;28;20051;-65
2023/05/02 19:43:06;;;;;;;6.13;3.90;;;;;;;-146.18;100.00;67994.34;10068928;28;20054;-65
2023/05/02 19:48:02;;;;;;;9.48;4.95;;;;;;;-146.18;100.00;67994.34;10067441;28;20075;-65
2023/05/02 19:53:00;;;;;;;7.30;4.55;;;;;;;-146.18;100.00;67994.34;10064133;28;20047;-65
2023/05/02 19:57:59;;;;;;;7.32;4.72;;;;;;;-146.18;100.00;67994.34;10051581;28;20075;-65
2023/05/02 20:02:55;;;;;;;5.80;4.55;;;;;;;-146.18;100.00;67994.34;10052628;28;20062;-68
2023/05/02 20:07:52;;;;;;;7.25;5.07;;;;;;;-146.18;100.00;67994.34;10054787;28;20514;-73
2023/05/02 20:12:48;;;;;;;9.35;4.70;;;;;;;-146.18;100.00;67994.34;10067632;28;20070;-68
2023/05/02 20:17:46;;;;;;;14.48;5.25;;;;;;;-146.18;100.00;67994.34;10064412;28;20094;-69
2023/05/02 20:22:43;;;;;;;7.93;4.22;;;;;;;-146.18;100.00;67994.34;10054130;28;20051;-69
2023/05/02 20:27:41;;;;;;;9.18;4.45;;;;;;;-146.18;100.00;67994.34;10046631;28;20043;-69
2023/05/02 20:32:37;;;;;;;7.35;4.03;;;;;;;-146.18;100.00;67994.34;10019268;28;20560;-69
2023/05/02 20:37:34;;;;;;;9.50;4.97;;;;;;;-146.18;100.00;67994.34;10025220;28;20403;-69
2023/05/02 20:42:31;;;;;;;9.20;3.95;;;;;;;-146.18;100.00;67994.34;10018911;28;20542;-69
2023/05/02 20:47:29;;;;;;;7.38;3.95;;;;;;;-146.18;100.00;67994.34;10017593;28;20442;-69
2023/05/02 20:52:25;;;;;;;7.03;3.83;;;;;;;-146.18;100.00;67994.34;10015224;28;20556;-69
2023/05/02 20:57:23;;;;;;;4.82;3.72;;;;;;;-146.18;100.00;67994.34;10026373;28;20130;-69
2023/05/02 21:02:22;;;;;;;8.07;4.65;;;;;;;-146.18;100.00;67994.34;10032615;28;20071;-67
2023/05/02 21:07:18;;;;;;;7.10;3.63;;;;;;;-146.18;100.00;67994.34;10030937;28;20419;-68
2023/05/02 21:12:15;;;;;;;9.82;4.70;;;;;;;-146.18;100.00;67994.34;10035942;28;20458;-67
2023/05/02 21:17:11;;;;;;;8.95;4.03;;;;;;;-146.18;100.00;67994.34;10065337;28;20074;-68
2023/05/02 21:22:08;;;;;;;7.32;3.88;;;;;;;-146.18;100.00;67994.34;10067341;28;20441;-69
2023/05/02 21:27:04;;;;;;;11.18;5.10;;;;;;;-146.18;100.00;67994.34;10074394;28;20055;-67
2023/05/02 21:32:01;;;;;;;5.63;3.63;;;;;;;-146.18;100.00;67994.34;10049466;28;20047;-66
2023/05/02 21:36:58;;;;;;;7.30;3.88;;;;;;;-146.18;100.00;67994.34;10032907;28;20074;-66
2023/05/02 21:41:55;;;;;;;7.63;3.88;;;;;;;-146.18;100.00;67994.34;10041792;28;20043;-66
2023/05/02 21:46:54;;;;;;;8.38;4.32;;;;;;;-146.18;100.00;67994.34;10065774;28;20566;-67
2023/05/02 21:51:51;;;;;;;7.35;3.70;;;;;;;-146.18;100.00;67994.34;10069268;28;20362;-68
2023/05/02 21:56:50;;;;;;;6.63;3.67;;;;;;;-146.18;100.00;67994.34;10067688;28;20070;-68
2023/05/02 22:01:46;;;;;;;8.02;3.50;;;;;;;-146.18;100.00;67994.34;10076754;28;20684;-68
2023/05/02 22:06:48;;;;;;;6.65;4.03;;;;;;;-146.18;100.00;67994.34;10056839;28;20055;-69
2023/05/02 22:11:45;;;;;;;9.57;4.30;;;;;;;-146.18;100.00;67994.34;10039011;28;20061;-68